Time;durP1;ratioP1;P1;durP2;ratioP2;P2;SDS_P1;SDS_P2;PMS_P1;PMS_P2;Temp;Humidity;BMP_temperature;BMP_pressure;BME280_temperature;BME280_humidity;BME280_pressure;Samples;Min_cycle;Max_cycle;Signal;HPM_P1;HPM_P2
2022/02/19 00:00:38;;;;;;;23.30;4.83;;;;;;;-145.14;100.00;70583.66;4998546;28;20192;-77
2022/02/19 00:03:04;;;;;;;18.93;4.37;;;;;;;-145.14;100.00;70583.66;4995108;28;20471;-74
2022/02/19 00:05:30;;;;;;;20.60;4.83;;;;;;;-145.14;100.00;70583.66;4997743;28;20197;-75
2022/02/19 00:07:56;;;;;;;31.23;5.30;;;;;;;-145.14;100.00;70583.66;5000302;28;20205;-74
2022/02/19 00:10:22;;;;;;;21.57;4.83;;;;;;;-145.14;100.00;70583.66;5000190;28;20656;-75
2022/02/19 00:12:47;;;;;;;39.90;6.23;;;;;;;-145.14;100.00;70583.66;4997124;28;20447;-74
2022/02/19 00:15:14;;;;;;;23.97;4.60;;;;;;;-145.14;100.00;70583.66;4996901;28;20264;-76
2022/02/19 00:17:40;;;;;;;23.60;4.90;;;;;;;-145.14;100.00;70583.66;4997235;28;20216;-75
2022/02/19 00:20:07;;;;;;;29.80;5.00;;;;;;;-145.14;100.00;70583.66;4998763;28;20871;-75
2022/02/19 00:22:32;;;;;;;34.90;6.03;;;;;;;-145.14;100.00;70583.66;5001794;28;20202;-75
2022/02/19 00:24:58;;;;;;;31.33;5.20;;;;;;;-145.14;100.00;70583.66;4996214;28;21070;-74
2022/02/19 00:27:23;;;;;;;27.40;4.97;;;;;;;-145.14;100.00;70583.66;4999035;28;20210;-75
2022/02/19 00:29:49;;;;;;;28.53;5.40;;;;;;;-145.14;100.00;70583.66;4998073;28;20300;-74
2022/02/19 00:32:15;;;;;;;25.53;5.53;;;;;;;-145.14;100.00;70583.66;5001998;28;20193;-75
2022/02/19 00:34:40;;;;;;;15.53;3.73;;;;;;;-145.14;100.00;70583.66;5000504;28;20180;-72
2022/02/19 00:37:06;;;;;;;22.37;4.03;;;;;;;-145.14;100.00;70583.66;5013733;23;20588;-77
2022/02/19 00:39:32;;;;;;;21.73;5.10;;;;;;;-145.14;100.00;70583.66;4998133;28;20232;-74
2022/02/19 00:41:58;;;;;;;13.27;4.30;;;;;;;-145.14;100.00;70583.66;4999405;28;20489;-74
2022/02/19 00:44:24;;;;;;;15.07;3.47;;;;;;;-145.14;100.00;70583.66;4999509;28;20480;-74
2022/02/19 00:46:50;;;;;;;18.90;3.93;;;;;;;-145.14;100.00;70583.66;4999864;28;20506;-74
2022/02/19 00:49:15;;;;;;;18.00;3.90;;;;;;;-145.14;100.00;70583.66;4997680;28;20228;-74
2022/02/19 00:51:40;;;;;;;21.20;3.70;;;;;;;-145.14;100.00;70583.66;5000185;28;20181;-74
2022/02/19 00:54:06;;;;;;;14.00;3.73;;;;;;;-145.14;100.00;70583.66;4999778;28;20191;-74
2022/02/19 00:56:54;;;;;;;30.93;3.97;;;;;;;-145.14;100.00;70583.66;5001700;28;20236;-74
2022/02/19 00:59:25;;;;;;;24.70;4.20;;;;;;;-145.14;100.00;70583.66;5014596;28;20224;-74
2022/02/19 01:02:49;;;;;;;24.30;3.80;;;;;;;-145.14;100.00;70583.66;5000720;28;20447;-73
2022/02/19 01:06:13;;;;;;;12.10;2.33;;;;;;;-145.14;100.00;70583.66;4999214;28;20710;-74
2022/02/19 01:08:56;;;;;;;11.17;2.20;;;;;;;-145.14;100.00;70583.66;4997325;28;20515;-74
2022/02/19 01:11:44;;;;;;;13.87;2.70;;;;;;;-145.14;100.00;70583.66;4999254;28;20435;-75
2022/02/19 01:15:11;;;;;;;19.47;3.23;;;;;;;-145.14;100.00;70583.66;4998103;28;20440;-72
2022/02/19 01:18:35;;;;;;;13.60;3.17;;;;;;;-145.14;100.00;70583.66;4998005;28;20456;-73
2022/02/19 01:21:23;;;;;;;15.87;3.60;;;;;;;-145.14;100.00;70583.66;4995330;28;20440;-73
2022/02/19 01:24:44;;;;;;;19.27;3.00;;;;;;;-145.14;100.00;70583.66;5000227;28;20596;-74
2022/02/19 01:27:10;;;;;;;17.60;3.03;;;;;;;-145.14;100.00;70583.66;5000585;28;20940;-73
2022/02/19 01:29:36;;;;;;;17.17;3.10;;;;;;;-145.14;100.00;70583.66;5001189;28;20451;-73
2022/02/19 01:32:10;;;;;;;20.40;4.00;;;;;;;-145.14;100.00;70583.66;5000149;28;20193;-73
2022/02/19 01:34:36;;;;;;;20.80;4.20;;;;;;;-145.14;100.00;70583.66;5000134;28;20408;-73
2022/02/19 01:37:56;;;;;;;24.87;4.67;;;;;;;-145.14;100.00;70583.66;5002118;28;20554;-73
2022/02/19 01:41:20;;;;;;;20.37;5.77;;;;;;;-145.14;100.00;70583.66;5001655;28;25100;-72
2022/02/19 01:43:46;;;;;;;24.70;4.23;;;;;;;-145.14;100.00;70583.66;4998792;28;20459;-73
2022/02/19 01:46:11;;;;;;;32.40;5.20;;;;;;;-145.14;100.00;70583.66;4994613;28;20483;-74
2022/02/19 01:48:37;;;;;;;13.13;3.13;;;;;;;-145.14;100.00;70583.66;4999460;28;20219;-74
2022/02/19 01:51:03;;;;;;;19.90;3.53;;;;;;;-145.14;100.00;70583.66;5001715;28;20197;-73
2022/02/19 01:53:30;;;;;;;17.10;3.80;;;;;;;-145.14;100.00;70583.66;4996601;28;20192;-73
2022/02/19 01:55:57;;;;;;;13.17;2.70;;;;;;;-145.14;100.00;70583.66;5000442;28;20563;-73
2022/02/19 01:58:23;;;;;;;14.00;2.20;;;;;;;-145.14;100.00;70583.66;4998738;28;20464;-73
2022/02/19 02:00:49;;;;;;;7.77;1.77;;;;;;;-145.14;100.00;70583.66;4997649;28;25117;-74
2022/02/19 02:03:15;;;;;;;17.57;3.43;;;;;;;-145.14;100.00;70583.66;4999841;28;25117;-74
2022/02/19 02:05:41;;;;;;;11.37;2.60;;;;;;;-145.14;100.00;70583.66;4997720;28;20546;-74
2022/02/19 02:08:07;;;;;;;13.07;2.40;;;;;;;-145.14;100.00;70583.66;4997869;28;20218;-73
2022/02/19 02:10:34;;;;;;;11.87;2.27;;;;;;;-145.14;100.00;70583.66;4998801;28;20443;-74
2022/02/19 02:13:01;;;;;;;12.40;2.03;;;;;;;-145.14;100.00;70583.66;4999176;28;20826;-73
2022/02/19 02:15:31;;;;;;;8.97;2.23;;;;;;;-145.14;100.00;70583.66;4997981;28;20488;-74
2022/02/19 02:17:57;;;;;;;13.83;2.87;;;;;;;-145.14;100.00;70583.66;5010511;28;20464;-73
2022/02/19 02:20:23;;;;;;;11.37;3.63;;;;;;;-145.14;100.00;70583.66;5012870;28;21156;-73
2022/02/19 02:22:49;;;;;;;18.50;3.20;;;;;;;-145.14;100.00;70583.66;4994849;28;20447;-73
2022/02/19 02:25:15;;;;;;;16.00;4.13;;;;;;;-145.14;100.00;70583.66;4996275;28;20969;-73
2022/02/19 02:27:40;;;;;;;15.33;2.57;;;;;;;-145.14;100.00;70583.66;5000472;28;20237;-73
2022/02/19 02:30:06;;;;;;;17.27;2.97;;;;;;;-145.14;100.00;70583.66;5001380;28;20471;-74
2022/02/19 02:32:32;;;;;;;13.30;2.57;;;;;;;-145.14;100.00;70583.66;5013011;28;20272;-74
2022/02/19 02:34:58;;;;;;;15.63;3.13;;;;;;;-145.14;100.00;70583.66;4996139;28;25206;-74
2022/02/19 02:37:25;;;;;;;12.17;3.40;;;;;;;-145.14;100.00;70583.66;4994689;28;20213;-73
2022/02/19 02:39:51;;;;;;;12.27;2.67;;;;;;;-145.14;100.00;70583.66;4998350;28;20212;-73
2022/02/19 02:42:20;;;;;;;12.30;2.30;;;;;;;-145.14;100.00;70583.66;5001752;28;20439;-73
2022/02/19 02:44:46;;;;;;;7.67;2.17;;;;;;;-145.14;100.00;70583.66;4997574;28;21046;-73
2022/02/19 02:47:12;;;;;;;14.53;2.80;;;;;;;-145.14;100.00;70583.66;4999298;28;20475;-74
2022/02/19 02:49:39;;;;;;;17.53;2.50;;;;;;;-145.14;100.00;70583.66;4999686;28;20451;-73
2022/02/19 02:52:09;;;;;;;8.40;2.00;;;;;;;-145.14;100.00;70583.66;4995123;28;20447;-74
2022/02/19 02:54:36;;;;;;;5.50;2.07;;;;;;;-145.14;100.00;70583.66;4997735;28;20427;-73
2022/02/19 02:57:03;;;;;;;5.30;1.53;;;;;;;-145.14;100.00;70583.66;4994225;28;20447;-73
2022/02/19 02:59:28;;;;;;;6.93;1.73;;;;;;;-145.14;100.00;70583.66;4995830;28;20655;-73
2022/02/19 03:01:54;;;;;;;8.37;1.90;;;;;;;-145.14;100.00;70583.66;4997564;28;20823;-73
2022/02/19 03:04:19;;;;;;;10.27;2.00;;;;;;;-145.14;100.00;70583.66;4997640;28;20208;-74
2022/02/19 03:06:45;;;;;;;9.33;1.70;;;;;;;-145.14;100.00;70583.66;4993016;28;20197;-73
2022/02/19 03:09:12;;;;;;;14.20;1.90;;;;;;;-145.14;100.00;70583.66;4998597;28;20286;-74
2022/02/19 03:11:38;;;;;;;6.37;1.90;;;;;;;-145.14;100.00;70583.66;4993913;28;20524;-73
2022/02/19 03:14:05;;;;;;;11.93;1.90;;;;;;;-145.14;100.00;70583.66;4995603;28;20519;-73
2022/02/19 03:16:32;;;;;;;8.27;1.53;;;;;;;-145.14;100.00;70583.66;4994438;28;20482;-74
2022/02/19 03:18:58;;;;;;;5.50;1.80;;;;;;;-145.14;100.00;70583.66;4995414;28;21018;-74
2022/02/19 03:21:23;;;;;;;7.80;1.50;;;;;;;-145.14;100.00;70583.66;4995578;28;20445;-74
2022/02/19 03:23:48;;;;;;;5.67;1.47;;;;;;;-145.14;100.00;70583.66;4996328;28;20566;-73
2022/02/19 03:26:14;;;;;;;6.60;1.80;;;;;;;-145.14;100.00;70583.66;4995396;28;20201;-73
2022/02/19 03:28:40;;;;;;;5.30;1.30;;;;;;;-145.14;100.00;70583.66;4996111;28;20204;-73
2022/02/19 03:31:05;;;;;;;11.80;1.40;;;;;;;-145.14;100.00;70583.66;4996091;28;20576;-73
2022/02/19 03:33:30;;;;;;;8.47;1.43;;;;;;;-145.14;100.00;70583.66;4994449;28;20392;-73
2022/02/19 03:35:56;;;;;;;9.23;1.77;;;;;;;-145.14;100.00;70583.66;4997931;28;20192;-73
2022/02/19 03:38:21;;;;;;;10.33;1.87;;;;;;;-145.14;100.00;70583.66;4998948;28;20706;-73
2022/02/19 03:40:47;;;;;;;11.10;1.60;;;;;;;-145.14;100.00;70583.66;4997487;28;20193;-73
2022/02/19 03:43:13;;;;;;;5.40;1.20;;;;;;;-145.14;100.00;70583.66;4996902;28;20188;-73
2022/02/19 03:45:41;;;;;;;8.70;1.10;;;;;;;-145.14;100.00;70583.66;4996531;28;20665;-73
2022/02/19 03:48:07;;;;;;;11.03;1.77;;;;;;;-145.14;100.00;70583.66;4997677;28;20291;-73
2022/02/19 03:50:33;;;;;;;7.17;1.40;;;;;;;-145.14;100.00;70583.66;4995036;28;20447;-73
2022/02/19 03:52:59;;;;;;;10.80;1.73;;;;;;;-145.14;100.00;70583.66;4995641;28;20491;-73
2022/02/19 03:55:24;;;;;;;5.83;1.57;;;;;;;-145.14;100.00;70583.66;4994445;28;20511;-73
2022/02/19 03:57:50;;;;;;;10.43;1.67;;;;;;;-145.14;100.00;70583.66;4994480;28;20216;-73
2022/02/19 04:00:16;;;;;;;9.00;1.70;;;;;;;-145.14;100.00;70583.66;4992351;28;20218;-74
2022/02/19 04:02:43;;;;;;;7.70;1.47;;;;;;;-145.14;100.00;70583.66;4998400;28;20712;-73
2022/02/19 04:05:13;;;;;;;16.93;2.30;;;;;;;-145.14;100.00;70583.66;4999936;28;20510;-73
2022/02/19 04:07:38;;;;;;;5.23;1.47;;;;;;;-145.14;100.00;70583.66;4998438;28;20471;-73
2022/02/19 04:10:06;;;;;;;7.30;1.40;;;;;;;-145.14;100.00;70583.66;5003203;28;20517;-73
2022/02/19 04:12:31;;;;;;;7.97;1.70;;;;;;;-145.14;100.00;70583.66;5000086;28;20193;-73
2022/02/19 04:14:57;;;;;;;15.03;2.10;;;;;;;-145.14;100.00;70583.66;5000045;28;21114;-74
2022/02/19 04:17:22;;;;;;;8.90;1.70;;;;;;;-145.14;100.00;70583.66;4998302;28;20617;-73
2022/02/19 04:19:53;;;;;;;4.50;1.20;;;;;;;-145.14;100.00;70583.66;5000451;28;20191;-73
2022/02/19 04:22:23;;;;;;;8.50;1.13;;;;;;;-145.14;100.00;70583.66;5001724;28;21030;-72
2022/02/19 04:24:49;;;;;;;9.67;1.50;;;;;;;-145.14;100.00;70583.66;4997446;28;20955;-73
2022/02/19 04:27:16;;;;;;;10.73;1.53;;;;;;;-145.14;100.00;70583.66;4999465;28;20458;-73
2022/02/19 04:29:41;;;;;;;9.77;1.40;;;;;;;-145.14;100.00;70583.66;4997507;28;20459;-73
2022/02/19 04:32:08;;;;;;;13.17;1.33;;;;;;;-145.14;100.00;70583.66;4999122;28;20443;-72
2022/02/19 04:34:34;;;;;;;14.13;1.83;;;;;;;-145.14;100.00;70583.66;4995406;28;20181;-73
2022/02/19 04:36:59;;;;;;;7.03;1.57;;;;;;;-145.14;100.00;70583.66;4994974;28;20451;-73
2022/02/19 04:39:25;;;;;;;11.80;1.53;;;;;;;-145.14;100.00;70583.66;4997563;28;20506;-73
2022/02/19 04:41:50;;;;;;;12.47;2.37;;;;;;;-145.14;100.00;70583.66;4997539;28;20227;-73
2022/02/19 04:44:16;;;;;;;12.13;2.47;;;;;;;-145.14;100.00;70583.66;4996980;28;20491;-74
2022/02/19 04:46:41;;;;;;;8.53;1.73;;;;;;;-145.14;100.00;70583.66;4997521;28;20685;-73
2022/02/19 04:49:09;;;;;;;10.93;1.53;;;;;;;-145.14;100.00;70583.66;4999377;28;20248;-73
2022/02/19 04:51:35;;;;;;;6.50;1.30;;;;;;;-145.14;100.00;70583.66;4998110;28;20181;-73
2022/02/19 04:54:00;;;;;;;4.27;0.90;;;;;;;-145.14;100.00;70583.66;4999482;28;20494;-73
2022/02/19 04:56:26;;;;;;;4.30;1.13;;;;;;;-145.14;100.00;70583.66;4998982;28;20741;-73
2022/02/19 04:58:51;;;;;;;4.60;1.10;;;;;;;-145.14;100.00;70583.66;4997548;28;20233;-73
2022/02/19 05:01:17;;;;;;;9.00;1.70;;;;;;;-145.14;100.00;70583.66;4995217;28;20215;-73
2022/02/19 05:03:42;;;;;;;18.33;1.90;;;;;;;-145.14;100.00;70583.66;4997629;28;20333;-73
2022/02/19 05:06:12;;;;;;;9.97;2.40;;;;;;;-145.14;100.00;70583.66;4999344;28;20201;-72
2022/02/19 05:08:38;;;;;;;10.83;2.10;;;;;;;-145.14;100.00;70583.66;4996806;28;20339;-73
2022/02/19 05:11:03;;;;;;;9.73;1.30;;;;;;;-145.14;100.00;70583.66;4996077;28;20451;-72
2022/02/19 05:13:30;;;;;;;5.67;1.97;;;;;;;-145.14;100.00;70583.66;4997265;28;20186;-73
2022/02/19 05:15:56;;;;;;;8.33;1.70;;;;;;;-145.14;100.00;70583.66;4997881;28;20240;-73
2022/02/19 05:18:21;;;;;;;11.80;2.77;;;;;;;-145.14;100.00;70583.66;4998163;28;20985;-73
2022/02/19 05:20:46;;;;;;;6.83;1.70;;;;;;;-145.14;100.00;70583.66;4998214;28;20185;-73
2022/02/19 05:23:13;;;;;;;8.00;1.70;;;;;;;-145.14;100.00;70583.66;4998119;28;20191;-73
2022/02/19 05:25:40;;;;;;;10.50;1.77;;;;;;;-145.14;100.00;70583.66;4995161;28;20197;-72
2022/02/19 05:28:09;;;;;;;11.10;1.47;;;;;;;-145.14;100.00;70583.66;4999276;28;20463;-73
2022/02/19 05:30:35;;;;;;;17.50;2.67;;;;;;;-145.14;100.00;70583.66;4996389;28;20854;-73
2022/02/19 05:33:01;;;;;;;10.73;2.23;;;;;;;-145.14;100.00;70583.66;4998347;28;20452;-74
2022/02/19 05:35:26;;;;;;;10.03;2.03;;;;;;;-145.14;100.00;70583.66;4998889;28;20454;-74
2022/02/19 05:37:52;;;;;;;12.40;2.30;;;;;;;-145.14;100.00;70583.66;4994618;28;20320;-73
2022/02/19 05:40:17;;;;;;;11.30;1.90;;;;;;;-145.14;100.00;70583.66;4990191;28;20189;-73
2022/02/19 05:42:42;;;;;;;8.00;1.93;;;;;;;-145.14;100.00;70583.66;4995550;28;20197;-73
2022/02/19 05:45:08;;;;;;;12.33;1.60;;;;;;;-145.14;100.00;70583.66;4999094;28;20271;-73
2022/02/19 05:47:34;;;;;;;10.70;1.60;;;;;;;-145.14;100.00;70583.66;4998127;28;20204;-73
2022/02/19 05:49:59;;;;;;;7.53;1.20;;;;;;;-145.14;100.00;70583.66;4995202;28;20687;-73
2022/02/19 05:52:25;;;;;;;10.33;1.83;;;;;;;-145.14;100.00;70583.66;4998732;28;20231;-73
2022/02/19 05:54:54;;;;;;;10.43;1.37;;;;;;;-145.14;100.00;70583.66;4994038;28;20304;-73
2022/02/19 05:57:21;;;;;;;7.43;1.23;;;;;;;-145.14;100.00;70583.66;4996633;28;20263;-73
2022/02/19 05:59:46;;;;;;;6.10;1.10;;;;;;;-145.14;100.00;70583.66;4993156;28;20447;-73
2022/02/19 06:02:12;;;;;;;4.50;0.93;;;;;;;-145.14;100.00;70583.66;4995365;28;20448;-73
2022/02/19 06:04:37;;;;;;;7.10;2.10;;;;;;;-145.14;100.00;70583.66;5000002;28;20387;-73
2022/02/19 06:07:03;;;;;;;3.47;1.20;;;;;;;-145.14;100.00;70583.66;4999218;28;20192;-73
2022/02/19 06:09:28;;;;;;;6.47;1.87;;;;;;;-145.14;100.00;70583.66;4998184;28;20268;-73
2022/02/19 06:11:54;;;;;;;11.70;1.70;;;;;;;-145.14;100.00;70583.66;4998288;28;20684;-73
2022/02/19 06:14:20;;;;;;;6.27;1.73;;;;;;;-145.14;100.00;70583.66;4998907;28;20181;-72
2022/02/19 06:16:45;;;;;;;9.03;1.40;;;;;;;-145.14;100.00;70583.66;4995707;28;20196;-73
2022/02/19 06:19:11;;;;;;;10.03;1.90;;;;;;;-145.14;100.00;70583.66;4997982;28;20216;-72
2022/02/19 06:21:37;;;;;;;14.07;2.90;;;;;;;-145.14;100.00;70583.66;4997542;28;20189;-72
2022/02/19 06:24:02;;;;;;;10.47;2.10;;;;;;;-145.14;100.00;70583.66;4995958;28;20978;-73
2022/02/19 06:26:28;;;;;;;11.00;3.17;;;;;;;-145.14;100.00;70583.66;4998618;28;20601;-74
2022/02/19 06:28:53;;;;;;;8.63;1.97;;;;;;;-145.14;100.00;70583.66;4996513;28;20212;-73
2022/02/19 06:31:19;;;;;;;10.87;2.20;;;;;;;-145.14;100.00;70583.66;4999989;28;20227;-73
2022/02/19 06:33:44;;;;;;;13.77;2.20;;;;;;;-145.14;100.00;70583.66;4998682;28;20268;-73
2022/02/19 06:36:10;;;;;;;16.27;3.20;;;;;;;-145.14;100.00;70583.66;4995443;28;20945;-73
2022/02/19 06:38:39;;;;;;;17.30;2.80;;;;;;;-145.14;100.00;70583.66;5004356;23;20320;-70
2022/02/19 06:41:06;;;;;;;8.47;2.37;;;;;;;-145.14;100.00;70583.66;4997927;28;20193;-71
2022/02/19 06:43:31;;;;;;;9.73;2.47;;;;;;;-145.14;100.00;70583.66;4999952;28;21018;-69
2022/02/19 06:45:57;;;;;;;20.03;3.30;;;;;;;-145.14;100.00;70583.66;4996633;28;20448;-70
2022/02/19 06:48:22;;;;;;;14.80;3.17;;;;;;;-145.14;100.00;70583.66;4996698;28;20255;-72
2022/02/19 06:50:48;;;;;;;22.17;3.10;;;;;;;-145.14;100.00;70583.66;4997659;28;20188;-75
2022/02/19 06:53:13;;;;;;;20.50;3.40;;;;;;;-145.14;100.00;70583.66;4997098;28;20256;-76
2022/02/19 06:55:39;;;;;;;22.63;2.93;;;;;;;-145.14;100.00;70583.66;4997164;28;20189;-74
2022/02/19 06:58:04;;;;;;;20.30;4.20;;;;;;;-145.14;100.00;70583.66;4997742;28;20208;-72
2022/02/19 07:00:29;;;;;;;13.67;3.27;;;;;;;-145.14;100.00;70583.66;4999569;28;20191;-75
2022/02/19 07:02:55;;;;;;;20.93;4.27;;;;;;;-145.14;100.00;70583.66;4993402;28;20189;-73
2022/02/19 07:05:21;;;;;;;20.57;3.50;;;;;;;-145.14;100.00;70583.66;4993540;28;21156;-70
2022/02/19 07:07:47;;;;;;;16.10;3.50;;;;;;;-145.14;100.00;70583.66;4996375;28;20216;-71
2022/02/19 07:10:12;;;;;;;21.97;4.23;;;;;;;-145.14;100.00;70583.66;4997272;28;20494;-70
2022/02/19 07:12:38;;;;;;;14.53;3.27;;;;;;;-145.14;100.00;70583.66;4997114;28;20270;-72
2022/02/19 07:15:09;;;;;;;27.03;3.60;;;;;;;-145.14;100.00;70583.66;4993608;28;20189;-71
2022/02/19 07:17:52;;;;;;;13.83;3.43;;;;;;;-145.14;100.00;70583.66;4999154;28;21017;-74
2022/02/19 07:20:22;;;;;;;22.30;3.50;;;;;;;-145.14;100.00;70583.66;4996532;28;20479;-71
2022/02/19 07:22:48;;;;;;;19.37;3.63;;;;;;;-145.14;100.00;70583.66;4996051;28;20444;-71
2022/02/19 07:25:14;;;;;;;22.40;4.07;;;;;;;-145.14;100.00;70583.66;4997997;28;20456;-75
2022/02/19 07:27:44;;;;;;;17.23;3.40;;;;;;;-145.14;100.00;70583.66;4998709;28;20487;-74
2022/02/19 07:30:13;;;;;;;13.90;4.10;;;;;;;-145.14;100.00;70583.66;4995727;28;20184;-72
2022/02/19 07:32:39;;;;;;;19.73;3.53;;;;;;;-145.14;100.00;70583.66;4989992;28;20456;-75
2022/02/19 07:35:07;;;;;;;16.80;4.20;;;;;;;-145.14;100.00;70583.66;4998119;28;20456;-71
2022/02/19 07:37:34;;;;;;;19.00;3.67;;;;;;;-145.14;100.00;70583.66;4991894;28;20290;-71
2022/02/19 07:40:00;;;;;;;10.90;2.37;;;;;;;-145.14;100.00;70583.66;4995782;28;20436;-71
2022/02/19 07:42:25;;;;;;;9.10;2.67;;;;;;;-145.14;100.00;70583.66;4997853;28;20816;-71
2022/02/19 07:44:55;;;;;;;17.43;3.40;;;;;;;-145.14;100.00;70583.66;5002202;28;20288;-70
2022/02/19 07:47:22;;;;;;;13.87;3.07;;;;;;;-145.14;100.00;70583.66;4998792;28;20188;-70
2022/02/19 08:00:45;;;;;;;14.70;2.70;;;;;;;-145.14;100.00;70583.66;4995834;28;20843;-73
2022/02/19 08:03:10;;;;;;;13.03;3.00;;;;;;;-145.14;100.00;70583.66;5013255;28;20443;-73
2022/02/19 08:05:36;;;;;;;15.13;3.03;;;;;;;-145.14;100.00;70583.66;4997045;28;21102;-78
2022/02/19 08:08:01;;;;;;;13.33;3.10;;;;;;;-145.14;100.00;70583.66;5004101;28;20661;-74
2022/02/19 08:10:26;;;;;;;16.90;3.10;;;;;;;-145.14;100.00;70583.66;4995469;28;20192;-73
2022/02/19 08:12:52;;;;;;;12.07;2.40;;;;;;;-145.14;100.00;70583.66;4999988;28;20207;-79
2022/02/19 08:15:17;;;;;;;12.10;2.33;;;;;;;-145.14;100.00;70583.66;5003806;28;20181;-73
2022/02/19 08:17:43;;;;;;;17.10;2.30;;;;;;;-145.14;100.00;70583.66;4996635;28;20220;-71
2022/02/19 08:20:09;;;;;;;18.30;3.13;;;;;;;-145.14;100.00;70583.66;4995331;28;20192;-76
2022/02/19 08:22:34;;;;;;;12.83;3.00;;;;;;;-145.14;100.00;70583.66;5000426;28;20217;-74
2022/02/19 08:25:00;;;;;;;16.40;2.70;;;;;;;-145.14;100.00;70583.66;5002310;28;20940;-74
2022/02/19 08:27:26;;;;;;;16.77;3.30;;;;;;;-145.14;100.00;70583.66;5002423;28;20272;-77
2022/02/19 08:29:52;;;;;;;14.10;3.30;;;;;;;-145.14;100.00;70583.66;5004109;28;20218;-77
2022/02/19 08:32:17;;;;;;;7.17;1.90;;;;;;;-145.14;100.00;70583.66;5000741;28;20452;-72
2022/02/19 08:34:43;;;;;;;5.95;1.60;;;;;;;-145.14;100.00;70583.66;4998343;28;20185;-77
2022/02/19 08:37:08;;;;;;;5.17;1.30;;;;;;;-145.14;100.00;70583.66;4996054;28;25060;-76
2022/02/19 08:39:34;;;;;;;6.47;1.60;;;;;;;-145.14;100.00;70583.66;4999835;28;20222;-71
2022/02/19 08:41:59;;;;;;;4.47;1.43;;;;;;;-145.14;100.00;70583.66;4997759;28;20200;-71
2022/02/19 08:44:24;;;;;;;4.23;1.10;;;;;;;-145.14;100.00;70583.66;4999172;28;20204;-72
2022/02/19 08:46:50;;;;;;;4.50;1.37;;;;;;;-145.14;100.00;70583.66;4996567;28;20616;-74
2022/02/19 08:49:16;;;;;;;9.53;1.40;;;;;;;-145.14;100.00;70583.66;5002112;28;20209;-72
2022/02/19 08:51:41;;;;;;;10.40;1.93;;;;;;;-145.14;100.00;70583.66;5002470;28;20196;-71
2022/02/19 08:54:07;;;;;;;9.97;2.10;;;;;;;-145.14;100.00;70583.66;4997727;28;20300;-70
2022/02/19 08:56:32;;;;;;;10.50;2.47;;;;;;;-145.14;100.00;70583.66;4988351;28;20347;-70
2022/02/19 08:58:58;;;;;;;10.73;2.23;;;;;;;-145.14;100.00;70583.66;4995637;28;20220;-71
2022/02/19 09:01:27;;;;;;;13.50;2.17;;;;;;;-145.14;100.00;70583.66;4998231;28;20267;-70
2022/02/19 09:03:53;;;;;;;7.93;2.40;;;;;;;-145.14;100.00;70583.66;5000513;28;20583;-74
2022/02/19 09:06:19;;;;;;;16.70;3.10;;;;;;;-145.14;100.00;70583.66;4994245;28;20482;-73
2022/02/19 09:08:46;;;;;;;23.67;3.63;;;;;;;-145.14;100.00;70583.66;4999425;28;20906;-76
2022/02/19 09:11:11;;;;;;;10.93;2.93;;;;;;;-145.14;100.00;70583.66;4998426;28;20661;-74
2022/02/19 09:13:37;;;;;;;15.93;3.50;;;;;;;-145.14;100.00;70583.66;4998710;28;20658;-74
2022/02/19 09:16:02;;;;;;;4.60;1.70;;;;;;;-145.14;100.00;70583.66;4997473;28;20569;-71
2022/02/19 09:18:28;;;;;;;7.30;1.90;;;;;;;-145.14;100.00;70583.66;5011323;28;20209;-73
2022/02/19 09:20:53;;;;;;;6.10;1.97;;;;;;;-145.14;100.00;70583.66;4997838;28;20189;-76
2022/02/19 09:23:19;;;;;;;11.40;2.03;;;;;;;-145.14;100.00;70583.66;4998492;28;20272;-78
2022/02/19 09:25:44;;;;;;;7.93;1.73;;;;;;;-145.14;100.00;70583.66;4999137;28;20448;-75
2022/02/19 09:28:10;;;;;;;14.43;2.60;;;;;;;-145.14;100.00;70583.66;4998867;28;20674;-74
2022/02/19 09:30:35;;;;;;;13.33;2.00;;;;;;;-145.14;100.00;70583.66;4996003;28;20188;-74
2022/02/19 09:33:02;;;;;;;12.57;2.90;;;;;;;-145.14;100.00;70583.66;4988786;28;20499;-71
2022/02/19 09:35:28;;;;;;;17.10;3.50;;;;;;;-145.14;100.00;70583.66;4995742;28;20232;-68
2022/02/19 09:37:53;;;;;;;17.87;2.93;;;;;;;-145.14;100.00;70583.66;5000286;28;20507;-69
2022/02/19 09:40:19;;;;;;;14.90;3.27;;;;;;;-145.14;100.00;70583.66;5002268;28;20255;-71
2022/02/19 09:42:46;;;;;;;10.97;2.70;;;;;;;-145.14;100.00;70583.66;4996849;28;20181;-73
2022/02/19 09:45:11;;;;;;;14.33;2.87;;;;;;;-145.14;100.00;70583.66;4995981;28;20456;-72
2022/02/19 09:47:38;;;;;;;9.47;2.47;;;;;;;-145.14;100.00;70583.66;4996777;28;21450;-70
2022/02/19 09:50:06;;;;;;;15.03;4.00;;;;;;;-145.14;100.00;70583.66;4993990;28;20193;-72
2022/02/19 09:52:32;;;;;;;11.30;3.83;;;;;;;-145.14;100.00;70583.66;4994743;28;20443;-73
2022/02/19 09:55:00;;;;;;;12.07;2.97;;;;;;;-145.14;100.00;70583.66;4990660;28;20455;-72
2022/02/19 09:57:27;;;;;;;17.50;2.73;;;;;;;-145.14;100.00;70583.66;4997953;28;20268;-70
2022/02/19 09:59:52;;;;;;;16.67;3.20;;;;;;;-145.14;100.00;70583.66;4987773;28;20908;-76
2022/02/19 10:02:29;;;;;;;16.77;3.30;;;;;;;-145.14;100.00;70583.66;4990461;28;20805;-78
2022/02/19 10:04:55;;;;;;;14.33;3.47;;;;;;;-145.14;100.00;70583.66;4992517;28;20233;-71
2022/02/19 10:07:21;;;;;;;12.87;2.73;;;;;;;-145.14;100.00;70583.66;4997871;28;20431;-74
2022/02/19 10:09:49;;;;;;;23.37;2.77;;;;;;;-145.14;100.00;70583.66;4985985;28;20478;-72
2022/02/19 10:12:16;;;;;;;12.50;3.20;;;;;;;-145.14;100.00;70583.66;5000327;28;20193;-72
2022/02/19 10:14:43;;;;;;;19.30;5.10;;;;;;;-145.14;100.00;70583.66;4999289;28;20454;-74
2022/02/19 10:17:23;;;;;;;20.73;4.20;;;;;;;-145.14;100.00;70583.66;4988391;28;20880;-71
2022/02/19 10:19:55;;;;;;;19.43;4.63;;;;;;;-145.14;100.00;70583.66;4984066;28;20513;-73
2022/02/19 10:22:30;;;;;;;26.07;3.80;;;;;;;-145.14;100.00;70583.66;4983093;28;20437;-73
2022/02/19 10:25:21;;;;;;;19.57;4.40;;;;;;;-145.14;100.00;70583.66;4990804;28;20464;-71
2022/02/19 10:27:48;;;;;;;21.03;3.77;;;;;;;-145.14;100.00;70583.66;4989126;28;20444;-73
2022/02/19 10:30:22;;;;;;;16.83;3.60;;;;;;;-145.14;100.00;70583.66;4984647;28;20444;-75
2022/02/19 10:33:03;;;;;;;13.60;3.10;;;;;;;-145.14;100.00;70583.66;4996657;28;20450;-70
2022/02/19 10:35:33;;;;;;;23.73;4.00;;;;;;;-145.14;100.00;70583.66;4985671;28;20536;-72
2022/02/19 10:38:08;;;;;;;16.27;2.93;;;;;;;-145.14;100.00;70583.66;4987753;28;20460;-73
2022/02/19 10:40:43;;;;;;;15.60;3.57;;;;;;;-145.14;100.00;70583.66;4993259;28;20440;-72
2022/02/19 10:43:12;;;;;;;21.43;3.67;;;;;;;-145.14;100.00;70583.66;4991293;28;20431;-75
2022/02/19 10:45:52;;;;;;;19.23;3.60;;;;;;;-145.14;100.00;70583.66;4992372;28;20867;-71
2022/02/19 10:48:22;;;;;;;14.00;2.80;;;;;;;-145.14;100.00;70583.66;4995811;28;20481;-73
2022/02/19 10:50:48;;;;;;;15.77;3.87;;;;;;;-145.14;100.00;70583.66;5004168;28;20432;-72
2022/02/19 10:53:25;;;;;;;19.70;3.67;;;;;;;-145.14;100.00;70583.66;5002263;28;20826;-72
2022/02/19 10:55:53;;;;;;;14.47;3.27;;;;;;;-145.14;100.00;70583.66;4998636;28;20886;-72
2022/02/19 10:58:19;;;;;;;17.50;3.33;;;;;;;-145.14;100.00;70583.66;5001996;28;20488;-78
2022/02/19 11:00:45;;;;;;;15.40;3.00;;;;;;;-145.14;100.00;70583.66;4990260;28;20881;-72
2022/02/19 11:03:10;;;;;;;13.93;3.47;;;;;;;-145.14;100.00;70583.66;4997357;28;20964;-73
2022/02/19 11:05:36;;;;;;;23.47;3.80;;;;;;;-145.14;100.00;70583.66;4996786;28;20236;-75
2022/02/19 11:08:03;;;;;;;19.20;4.10;;;;;;;-145.14;100.00;70583.66;5002321;28;20216;-75
2022/02/19 11:10:29;;;;;;;14.47;3.00;;;;;;;-145.14;100.00;70583.66;5003103;28;20431;-74
2022/02/19 11:12:55;;;;;;;17.23;3.00;;;;;;;-145.14;100.00;70583.66;5008641;28;20488;-74
2022/02/19 11:15:23;;;;;;;15.83;3.70;;;;;;;-145.14;100.00;70583.66;5009473;28;20485;-77
2022/02/19 11:17:50;;;;;;;14.90;2.67;;;;;;;-145.14;100.00;70583.66;5003706;28;21055;-71
2022/02/19 11:20:16;;;;;;;12.17;3.40;;;;;;;-145.14;100.00;70583.66;5008263;28;20522;-74